Time;durP1;ratioP1;P1;durP2;ratioP2;P2;SDS_P1;SDS_P2;PMS_P1;PMS_P2;Temp;Humidity;BMP_temperature;BMP_pressure;BME280_temperature;BME280_humidity;BME280_pressure;Samples;Min_cycle;Max_cycle;Signal;HPM_P1;HPM_P2
2022/06/01 00:02:36;;;;;;;;;;;;;;;12.36;58.22266;101394.4;;;;-81
2022/06/01 00:07:36;;;;;;;;;;;;;;;12.35;58.72559;101392.3;;;;-81
2022/06/01 00:12:35;;;;;;;;;;;;;;;12.35;59.36328;101393.3;;;;-82
2022/06/01 00:17:36;;;;;;;;;;;;;;;12.34;59.41699;101390.2;;;;-80
2022/06/01 00:22:36;;;;;;;;;;;;;;;12.32;59.36914;101389.1;;;;-80
2022/06/01 00:27:36;;;;;;;;;;;;;;;12.3;59.43359;101386.5;;;;-82
2022/06/01 00:27:58;;;;;;;8.8;4.8;;;;;;;;;;;;;-81
2022/06/01 00:32:35;;;;;;;;;;;;;;;12.25;59.34863;101386.4;;;;-80
2022/06/01 00:37:35;;;;;;;;;;;;;;;12.22;59.04297;101387.9;;;;-82
2022/06/01 00:42:37;;;;;;;;;;;;;;;12.19;59.30762;101385.6;;;;-82
2022/06/01 00:47:52;;;;;;;;;;;;;;;12.16;59.13477;101385;;;;-82
2022/06/01 00:52:45;;;;;;;;;;;;;;;12.12;59.12012;101381;;;;-82
2022/06/01 00:57:41;;;;;;;;;;;;;;;12.11;59.00586;101379.4;;;;-82
2022/06/01 00:58:01;;;;;;;6.7;3.6;;;;;;;;;;;;;-80
2022/06/01 01:02:37;;;;;;;;;;;;;;;12.07;59.09082;101381.1;;;;-82
2022/06/01 01:07:37;;;;;;;;;;;;;;;12.04;59.16406;101382.9;;;;-81
2022/06/01 01:12:56;;;;;;;;;;;;;;;11.99;59.4043;101385.5;;;;-83
2022/06/01 01:17:37;;;;;;;;;;;;;;;11.96;59.4668;101385.9;;;;-82
2022/06/01 01:22:43;;;;;;;;;;;;;;;11.94;59.22949;101379.3;;;;-82
2022/06/01 01:27:35;;;;;;;;;;;;;;;11.89;58.99902;101375;;;;-82
2022/06/01 01:28:03;;;;;;;5.5;3.4;;;;;;;;;;;;;-81
2022/06/01 01:32:35;;;;;;;;;;;;;;;11.85;58.74805;101373;;;;-82
2022/06/01 01:37:35;;;;;;;;;;;;;;;11.78;58.68262;101367.5;;;;-82
2022/06/01 01:42:36;;;;;;;;;;;;;;;11.73;58.84375;101370.9;;;;-83
2022/06/01 01:47:38;;;;;;;;;;;;;;;11.69;58.92676;101367.6;;;;-82
2022/06/01 01:52:35;;;;;;;;;;;;;;;11.67;58.76855;101355.1;;;;-81
2022/06/01 01:57:40;;;;;;;;;;;;;;;11.66;59.25684;101361;;;;-84
2022/06/01 01:58:06;;;;;;;6.8;3.7;;;;;;;;;;;;;-80
2022/06/01 02:02:40;;;;;;;;;;;;;;;11.62;59.18555;101355.9;;;;-82
2022/06/01 02:07:38;;;;;;;;;;;;;;;11.6;59.27148;101356.6;;;;-81
2022/06/01 02:17:38;;;;;;;;;;;;;;;11.55;59.02051;101350.6;;;;-83
2022/06/01 02:22:40;;;;;;;;;;;;;;;11.5;59.33691;101349.7;;;;-81
2022/06/01 02:27:38;;;;;;;;;;;;;;;11.44;59.57324;101340.8;;;;-82
2022/06/01 02:28:03;;;;;;;6.9;3.6;;;;;;;;;;;;;-82
2022/06/01 02:32:36;;;;;;;;;;;;;;;11.36;59.21582;101339.6;;;;-83
2022/06/01 02:37:36;;;;;;;;;;;;;;;11.28;59.35156;101340.5;;;;-81
2022/06/01 02:42:36;;;;;;;;;;;;;;;11.23;59.55566;101343.7;;;;-82
2022/06/01 02:47:37;;;;;;;;;;;;;;;11.16;59.66895;101342.2;;;;-81
2022/06/01 02:52:35;;;;;;;;;;;;;;;11.09;59.73828;101340.4;;;;-81
2022/06/01 02:57:35;;;;;;;;;;;;;;;11.05;59.77734;101341.7;;;;-81
2022/06/01 02:58:03;;;;;;;7.2;4.1;;;;;;;;;;;;;-82
2022/06/01 03:02:35;;;;;;;;;;;;;;;11.01;60.45215;101341.8;;;;-81
2022/06/01 03:07:35;;;;;;;;;;;;;;;10.96;60.32129;101346.5;;;;-83
2022/06/01 03:12:43;;;;;;;;;;;;;;;10.91;60.45996;101353.1;;;;-83
2022/06/01 03:17:36;;;;;;;;;;;;;;;10.86;59.97266;101356.6;;;;-83
2022/06/01 03:22:35;;;;;;;;;;;;;;;10.8;60.05469;101353.9;;;;-83
2022/06/01 03:27:38;;;;;;;;;;;;;;;10.73;59.92285;101347.8;;;;-80
2022/06/01 03:28:06;;;;;;;8.2;5.3;;;;;;;;;;;;;-82
2022/06/01 03:32:35;;;;;;;;;;;;;;;10.66;60.03613;101346.5;;;;-82
2022/06/01 03:37:36;;;;;;;;;;;;;;;10.6;60.21777;101347;;;;-82
2022/06/01 03:42:35;;;;;;;;;;;;;;;10.48;60.83398;101346;;;;-83
2022/06/01 03:47:38;;;;;;;;;;;;;;;10.46;60.64258;101346.7;;;;-84
2022/06/01 03:52:36;;;;;;;;;;;;;;;10.39;60.63379;101356.4;;;;-82
2022/06/01 03:57:38;;;;;;;;;;;;;;;10.36;60.8291;101358.8;;;;-83
2022/06/01 03:58:05;;;;;;;8.5;4.9;;;;;;;;;;;;;-82
2022/06/01 04:02:36;;;;;;;;;;;;;;;10.34;60.92676;101356.4;;;;-83
2022/06/01 04:07:35;;;;;;;;;;;;;;;10.33;61.125;101361.2;;;;-81
2022/06/01 04:12:40;;;;;;;;;;;;;;;10.3;61.13281;101364.6;;;;-82
2022/06/01 04:17:36;;;;;;;;;;;;;;;10.3;61.34375;101360.6;;;;-82
2022/06/01 04:22:36;;;;;;;;;;;;;;;10.28;61.28418;101362.5;;;;-83
2022/06/01 04:27:42;;;;;;;;;;;;;;;10.31;61.5;101367;;;;-81
2022/06/01 04:28:05;;;;;;;7.4;4.1;;;;;;;;;;;;;-81
2022/06/01 04:32:44;;;;;;;;;;;;;;;10.35;61.39453;101367.6;;;;-82
2022/06/01 04:37:46;;;;;;;;;;;;;;;10.43;61.04883;101372;;;;-83
2022/06/01 04:42:46;;;;;;;;;;;;;;;10.47;61.0791;101389.1;;;;-83
2022/06/01 04:47:51;;;;;;;;;;;;;;;10.54;61.49805;101382.4;;;;-81
2022/06/01 04:52:35;;;;;;;;;;;;;;;10.58;60.94824;101379;;;;-82
2022/06/01 04:57:36;;;;;;;;;;;;;;;10.61;60.84082;101376.2;;;;-81
2022/06/01 04:58:06;;;;;;;6;3.4;;;;;;;;;;;;;-81
2022/06/01 05:02:40;;;;;;;;;;;;;;;10.6;60.58496;101366.5;;;;-82
2022/06/01 05:07:38;;;;;;;;;;;;;;;10.58;60.33594;101363.3;;;;-82
2022/06/01 05:12:35;;;;;;;;;;;;;;;10.53;60.22949;101362.2;;;;-80
2022/06/01 05:17:37;;;;;;;;;;;;;;;10.5;60.13672;101365.6;;;;-83
2022/06/01 05:22:35;;;;;;;;;;;;;;;10.62;59.98535;101365.9;;;;-80
2022/06/01 05:27:38;;;;;;;;;;;;;;;11.11;59.41699;101363.5;;;;-82
2022/06/01 05:28:07;;;;;;;5;2.9;;;;;;;;;;;;;-83
2022/06/01 05:32:35;;;;;;;;;;;;;;;11.9;58.19531;101364.5;;;;-82
2022/06/01 05:37:35;;;;;;;;;;;;;;;12.68;56.77734;101367.3;;;;-81
2022/06/01 05:47:36;;;;;;;;;;;;;;;14.15;54.71973;101374;;;;-82
2022/06/01 05:52:38;;;;;;;;;;;;;;;14.75;54.16309;101377.1;;;;-85
2022/06/01 05:57:35;;;;;;;;;;;;;;;15.36;53.77637;101371.9;;;;-82
2022/06/01 05:58:18;;;;;;;4.8;2.8;;;;;;;;;;;;;-83
2022/06/01 06:02:35;;;;;;;;;;;;;;;15.92;52.92969;101377;;;;-83
2022/06/01 06:07:38;;;;;;;;;;;;;;;16.44;52.07617;101380.7;;;;-82
2022/06/01 06:12:37;;;;;;;;;;;;;;;16.92;51.81641;101385.1;;;;-82
2022/06/01 06:17:35;;;;;;;;;;;;;;;17.31;51.375;101384;;;;-82
2022/06/01 06:22:35;;;;;;;;;;;;;;;17.68;50.89648;101392.2;;;;-80
2022/06/01 06:27:37;;;;;;;;;;;;;;;18.06;50.22461;101394.1;;;;-82
2022/06/01 06:28:19;;;;;;;3.6;2.1;;;;;;;;;;;;;-81
2022/06/01 06:32:36;;;;;;;;;;;;;;;18.45;49.79004;101399.9;;;;-82
2022/06/01 06:37:38;;;;;;;;;;;;;;;18.84;49.19824;101400.6;;;;-82
2022/06/01 06:42:38;;;;;;;;;;;;;;;19.22;48.45313;101401.5;;;;-83
2022/06/01 06:47:41;;;;;;;;;;;;;;;19.53;48.06543;101397.4;;;;-83
2022/06/01 06:52:35;;;;;;;;;;;;;;;19.82;47.7666;101404;;;;-81
2022/06/01 06:57:43;;;;;;;;;;;;;;;20.09;47.4873;101402;;;;-83
2022/06/01 06:58:14;;;;;;;2.5;1.4;;;;;;;;;;;;;-84
2022/06/01 07:02:36;;;;;;;;;;;;;;;20.29;47.19922;101411;;;;-83
2022/06/01 07:07:35;;;;;;;;;;;;;;;20.39;47.16504;101413.2;;;;-82
2022/06/01 07:12:39;;;;;;;;;;;;;;;20.3;47.40625;101417.6;;;;-83
2022/06/01 07:21:52;;;;;;;;;;;;;;;20.3;47.31543;101422.3;;;;-81
2022/06/01 07:28:41;;;;;;;3.2;1.5;;;;;;;;;;;;;-83
2022/06/01 08:05:18;;;;;;;;;;;;;;;20.68;46.08496;101446.6;;;;-83
2022/06/01 08:10:18;;;;;;;;;;;;;;;20.92;45.60742;101445.4;;;;-83
2022/06/01 08:15:15;;;;;;;;;;;;;;;21.19;44.9248;101452.6;;;;-82
2022/06/01 08:20:17;;;;;;;;;;;;;;;21.46;44.48145;101454;;;;-82
2022/06/01 08:25:22;;;;;;;;;;;;;;;21.74;44.0625;101445.5;;;;-82
2022/06/01 08:28:25;;;;;;;2.6;1.1;;;;;;;;;;;;;-84
2022/06/01 08:30:23;;;;;;;;;;;;;;;21.88;43.2959;101459.9;;;;-83
2022/06/01 08:35:23;;;;;;;;;;;;;;;21.98;43.19043;101456.3;;;;-83
2022/06/01 08:40:15;;;;;;;;;;;;;;;21.99;42.77832;101457.5;;;;-81
2022/06/01 08:45:18;;;;;;;;;;;;;;;22.02;42.99902;101459.9;;;;-85
2022/06/01 08:50:20;;;;;;;;;;;;;;;21.99;42.66309;101464.8;;;;-82
2022/06/01 08:55:17;;;;;;;;;;;;;;;22.02;42.83887;101464.9;;;;-82
2022/06/01 08:58:29;;;;;;;3.4;1.1;;;;;;;;;;;;;-83
2022/06/01 09:00:21;;;;;;;;;;;;;;;22.28;42.61035;101468.5;;;;-84
2022/06/01 09:05:28;;;;;;;;;;;;;;;22.62;42.37793;101469.3;;;;-84
2022/06/01 09:13:08;;;;;;;;;;;;;;;22.79;41.33496;101470.3;;;;-82
2022/06/01 09:18:05;;;;;;;;;;;;;;;22.96;41.62891;101476.4;;;;-82
2022/06/01 09:23:20;;;;;;;;;;;;;;;23.22;40.99512;101473.1;;;;-82
2022/06/01 10:16:25;;;;;;;;;;;;;;;23.91;38.98145;101495;;;;-83
2022/06/01 10:21:30;;;;;;;;;;;;;;;23.78;39.14258;101495.4;;;;-84
2022/06/01 10:26:32;;;;;;;;;;;;;;;23.8;39.65137;101495.9;;;;-82
2022/06/01 10:28:44;;;;;;;2.2;1.1;;;;;;;;;;;;;-83
2022/06/01 10:31:24;;;;;;;;;;;;;;;24.13;39.88965;101502.1;;;;-83
2022/06/01 10:36:29;;;;;;;;;;;;;;;24.61;39.30762;101512.5;;;;-82
2022/06/01 10:51:03;;;;;;;;;;;;;;;24.71;38.11328;101524.8;;;;-85
2022/06/01 10:55:57;;;;;;;;;;;;;;;24.61;38.27832;101529.5;;;;-83
2022/06/01 10:58:43;;;;;;;2.6;1.1;;;;;;;;;;;;;-82
2022/06/01 11:00:59;;;;;;;;;;;;;;;24.38;38.29297;101548.1;;;;-83
2022/06/01 11:06:01;;;;;;;;;;;;;;;24.12;38.52441;101559.5;;;;-83
2022/06/01 11:11:12;;;;;;;;;;;;;;;23.85;38.97461;101556.8;;;;-85
2022/06/01 11:16:00;;;;;;;;;;;;;;;23.67;39.0752;101560.5;;;;-84
2022/06/01 11:21:14;;;;;;;;;;;;;;;23.41;39.27246;101570.9;;;;-83
2022/06/01 11:26:00;;;;;;;;;;;;;;;23.06;39.89746;101576.8;;;;-83
2022/06/01 11:28:47;;;;;;;1.8;0.9;;;;;;;;;;;;;-84
2022/06/01 11:31:04;;;;;;;;;;;;;;;22.64;40.72363;101574;;;;-82
2022/06/01 11:36:08;;;;;;;;;;;;;;;22.17;41.71484;101577.3;;;;-83
2022/06/01 11:41:05;;;;;;;;;;;;;;;21.7;42.44043;101588.5;;;;-82
2022/06/01 11:45:58;;;;;;;;;;;;;;;21.27;43.19043;101591.4;;;;-83
2022/06/01 11:51:06;;;;;;;;;;;;;;;20.79;44.24316;101590.2;;;;-82
2022/06/01 11:56:07;;;;;;;;;;;;;;;20.43;45.04102;101585.1;;;;-83
2022/06/01 11:59:01;;;;;;;3.6;1.2;;;;;;;;;;;;;-84
2022/06/01 12:01:12;;;;;;;;;;;;;;;20.14;45.5957;101589.8;;;;-83
2022/06/01 12:06:13;;;;;;;;;;;;;;;19.92;45.82422;101597.8;;;;-84
2022/06/01 12:11:03;;;;;;;;;;;;;;;19.66;46.2666;101599.5;;;;-80
2022/06/01 12:16:08;;;;;;;;;;;;;;;19.36;46.79395;101604.2;;;;-83
2022/06/01 12:20:59;;;;;;;;;;;;;;;19.03;47.24805;101612;;;;-83
2022/06/01 12:28:47;;;;;;;3;1.8;;;;;;;;;;;;;-83
2022/06/01 12:29:08;;;;;;;;;;;;;;;18.54;48.33398;101607.5;;;;-83
2022/06/01 12:34:14;;;;;;;;;;;;;;;18.33;48.64063;101614.2;;;;-84
2022/06/01 12:39:07;;;;;;;;;;;;;;;18.19;48.97754;101613.2;;;;-84
2022/06/01 12:44:16;;;;;;;;;;;;;;;18.1;49.05957;101614.8;;;;-83
2022/06/01 12:49:17;;;;;;;;;;;;;;;18.04;49.08691;101615.6;;;;-82
2022/06/01 12:54:07;;;;;;;;;;;;;;;17.97;49.04492;101618;;;;-83
2022/06/01 12:58:57;;;;;;;2.7;1.5;;;;;;;;;;;;;-78
2022/06/01 12:59:18;;;;;;;;;;;;;;;17.81;48.91309;101601.9;;;;-78
2022/06/01 13:04:19;;;;;;;;;;;;;;;17.84;48.84863;101615.4;;;;-78
2022/06/01 13:09:12;;;;;;;;;;;;;;;17.78;49.02344;101619.1;;;;-78
2022/06/01 13:14:08;;;;;;;;;;;;;;;17.79;49.02441;101614.9;;;;-76
2022/06/01 13:19:15;;;;;;;;;;;;;;;17.87;49.28418;101624.9;;;;-77
2022/06/01 13:24:07;;;;;;;;;;;;;;;18.01;50.46875;101618.6;;;;-78
2022/06/01 13:28:48;;;;;;;2.4;1.6;;;;;;;;;;;;;-78
2022/06/01 13:29:11;;;;;;;;;;;;;;;18.3;50.35449;101624.9;;;;-77
2022/06/01 13:34:11;;;;;;;;;;;;;;;18.68;50.75;101627;;;;-77
2022/06/01 13:39:15;;;;;;;;;;;;;;;19.07;50.37305;101631;;;;-77
2022/06/01 13:44:09;;;;;;;;;;;;;;;19.52;49.42188;101625.3;;;;-76
2022/06/01 13:49:07;;;;;;;;;;;;;;;19.8;49.28125;101634.2;;;;-78
2022/06/01 13:54:17;;;;;;;;;;;;;;;20.17;48.58105;101634.3;;;;-82
2022/06/01 13:58:57;;;;;;;2.4;1.4;;;;;;;;;;;;;-84
2022/06/01 13:59:08;;;;;;;;;;;;;;;20.43;48.4375;101631.4;;;;-85
2022/06/01 14:04:20;;;;;;;;;;;;;;;20.72;48.32031;101644;;;;-85
2022/06/01 14:09:23;;;;;;;;;;;;;;;21.02;47.71191;101642.6;;;;-83
2022/06/01 14:14:18;;;;;;;;;;;;;;;21.36;47.49707;101647.4;;;;-83
2022/06/01 14:19:24;;;;;;;;;;;;;;;21.77;47.29883;101651.9;;;;-84
2022/06/01 14:24:22;;;;;;;;;;;;;;;22;46.17676;101660.3;;;;-84
2022/06/01 14:29:09;;;;;;;4.1;1.3;;;;;;;;;;;;;-84
2022/06/01 14:29:36;;;;;;;;;;;;;;;22.02;45.73145;101659.3;;;;-85
2022/06/01 14:34:23;;;;;;;;;;;;;;;22.01;45.04199;101665.8;;;;-83
2022/06/01 14:43:29;;;;;;;;;;;;;;;22.06;45.06934;101674.5;;;;-84
2022/06/01 14:48:18;;;;;;;;;;;;;;;22.18;45.23145;101676.4;;;;-82
2022/06/01 14:53:26;;;;;;;;;;;;;;;22.33;45.1084;101676.7;;;;-85
2022/06/01 14:58:30;;;;;;;;;;;;;;;22.54;44.66992;101684;;;;-84
2022/06/01 14:59:01;;;;;;;2.5;1.4;;;;;;;;;;;;;-83
2022/06/01 15:08:33;;;;;;;;;;;;;;;22.9;42.92285;101692.3;;;;-85
2022/06/01 15:56:01;;;;;;;;;;;;;;;22.52;42.12695;101720.9;;;;-82
2022/06/01 15:58:59;;;;;;;2.5;1.3;;;;;;;;;;;;;-84
2022/06/01 16:00:58;;;;;;;;;;;;;;;;;;;;;
2022/06/01 16:05:58;;;;;;;;;;;;;;;22.43;42.30273;101722;;;;-83
2022/06/01 16:10:44;;;;;;;;;;;;;;;22.39;42.2998;101724.1;;;;-84
2022/06/01 16:15:49;;;;;;;;;;;;;;;22.34;42.12207;101723.9;;;;-84
2022/06/01 16:20:48;;;;;;;;;;;;;;;22.27;41.97754;101727;;;;-83
2022/06/01 16:25:57;;;;;;;;;;;;;;;22.22;42.4668;101731.9;;;;-83
2022/06/01 16:30:49;;;;;;;;;;;;;;;22.11;42.2959;101734.3;;;;-81
2022/06/01 16:35:54;;;;;;;;;;;;;;;22.02;42.64355;101738;;;;-84
2022/06/01 16:40:47;;;;;;;;;;;;;;;21.93;42.72754;101741.3;;;;-84
2022/06/01 16:45:48;;;;;;;;;;;;;;;21.86;42.74316;101748.7;;;;-84
2022/06/01 16:50:45;;;;;;;;;;;;;;;21.76;42.84863;101745;;;;-85
2022/06/01 16:55:56;;;;;;;;;;;;;;;21.63;43.12305;101750.2;;;;-84
2022/06/01 16:59:11;;;;;;;1.6;1;;;;;;;;;;;;;-85
2022/06/01 17:00:47;;;;;;;;;;;;;;;21.48;43.38281;101756.3;;;;-85
2022/06/01 17:05:45;;;;;;;;;;;;;;;21.31;43.5498;101761.1;;;;-83
2022/06/01 17:11:00;;;;;;;;;;;;;;;21.12;43.7832;101763;;;;-84
2022/06/01 17:15:46;;;;;;;;;;;;;;;20.92;44.10742;101761.1;;;;-80
2022/06/01 17:20:46;;;;;;;;;;;;;;;20.79;44.48438;101768.3;;;;-83
2022/06/01 17:26:04;;;;;;;;;;;;;;;20.65;44.65234;101775.5;;;;-83
2022/06/01 17:29:08;;;;;;;2.4;1;;;;;;;;;;;;;-84
2022/06/01 17:30:45;;;;;;;;;;;;;;;20.47;44.76074;101779.5;;;;-83
2022/06/01 17:35:52;;;;;;;;;;;;;;;20.27;45.26563;101785;;;;-82
2022/06/01 17:40:58;;;;;;;;;;;;;;;20.07;45.49805;101792.3;;;;-82
2022/06/01 17:45:45;;;;;;;;;;;;;;;19.88;45.83203;101790.8;;;;-84
2022/06/01 17:50:48;;;;;;;;;;;;;;;19.72;45.95313;101795.4;;;;-82
2022/06/01 17:55:46;;;;;;;;;;;;;;;19.55;45.80957;101798.6;;;;-82
2022/06/01 17:59:10;;;;;;;2.1;1.1;;;;;;;;;;;;;-82
2022/06/01 18:00:48;;;;;;;;;;;;;;;19.38;46.06445;101807.9;;;;-84
2022/06/01 18:05:52;;;;;;;;;;;;;;;19.21;46.21875;101815.1;;;;-83
2022/06/01 18:10:47;;;;;;;;;;;;;;;19.05;46.17969;101818.9;;;;-81
2022/06/01 18:16:04;;;;;;;;;;;;;;;18.88;46.42383;101824.1;;;;-83
2022/06/01 18:20:46;;;;;;;;;;;;;;;18.73;46.48828;101827.9;;;;-82
2022/06/01 18:26:00;;;;;;;;;;;;;;;;;;;;;
2022/06/01 18:29:16;;;;;;;1.9;1.1;;;;;;;;;;;;;-82
2022/06/01 18:30:46;;;;;;;;;;;;;;;18.49;46.47363;101843.6;;;;-84
2022/06/01 18:35:48;;;;;;;;;;;;;;;18.36;46.34668;101841.2;;;;-81
2022/06/01 18:40:45;;;;;;;;;;;;;;;18.24;46.24316;101842.7;;;;-82
2022/06/01 18:45:55;;;;;;;;;;;;;;;18.11;46.27539;101846.5;;;;-83
2022/06/01 18:50:52;;;;;;;;;;;;;;;17.93;46.37012;101849.8;;;;-81
2022/06/01 18:55:47;;;;;;;;;;;;;;;17.71;46.50586;101854.2;;;;-82
2022/06/01 19:01:32;;;;;;;2.2;1.3;;;;;;;;;;;;;-82
2022/06/01 19:05:48;;;;;;;;;;;;;;;17.23;46.67188;101857.3;;;;-80
2022/06/01 19:16:01;;;;;;;;;;;;;;;16.7;47.02344;101867.5;;;;-83
2022/06/01 19:20:45;;;;;;;;;;;;;;;16.43;47.53809;101877.9;;;;-83
2022/06/01 19:47:36;;;;;;;;;;;;;;;15.27;49.96484;101899.9;;;;-81
2022/06/01 19:52:36;;;;;;;;;;;;;;;15.15;50.44629;101910.1;;;;-82
2022/06/01 19:57:42;;;;;;;;;;;;;;;15.03;50.92969;101916.1;;;;-83
2022/06/01 19:59:19;;;;;;;3.4;1.5;;;;;;;;;;;;;-83
2022/06/01 20:02:43;;;;;;;;;;;;;;;14.92;51.3125;101914.9;;;;-85
2022/06/01 20:17:43;;;;;;;;;;;;;;;14.61;51.86133;101922.8;;;;-82
2022/06/01 20:22:34;;;;;;;;;;;;;;;14.5;52.06152;101926.2;;;;-80
2022/06/01 20:27:37;;;;;;;;;;;;;;;14.36;52.33789;101931.1;;;;-83
2022/06/01 20:29:22;;;;;;;3.5;1.6;;;;;;;;;;;;;-82
2022/06/01 20:32:38;;;;;;;;;;;;;;;14.21;52.64746;101942.6;;;;-81
2022/06/01 20:37:31;;;;;;;;;;;;;;;14.05;52.72852;101938.7;;;;-81
2022/06/01 20:42:34;;;;;;;;;;;;;;;13.89;52.97852;101948.4;;;;-82
2022/06/01 20:47:31;;;;;;;;;;;;;;;13.72;53.34082;101952.5;;;;-80
2022/06/01 20:52:31;;;;;;;;;;;;;;;13.56;53.37793;101959.5;;;;-83
2022/06/01 20:57:32;;;;;;;;;;;;;;;13.4;53.80762;101957.8;;;;-82
2022/06/01 20:59:23;;;;;;;2.9;1.8;;;;;;;;;;;;;-80
2022/06/01 21:02:33;;;;;;;;;;;;;;;13.26;54.02637;101960.1;;;;-83
2022/06/01 21:07:31;;;;;;;;;;;;;;;13.12;54.17676;101969.5;;;;-83
2022/06/01 21:12:34;;;;;;;;;;;;;;;12.99;54.38477;101977;;;;-83
2022/06/01 21:17:34;;;;;;;;;;;;;;;12.89;54.80957;101978;;;;-82
2022/06/01 21:22:34;;;;;;;;;;;;;;;12.74;54.95898;101978.6;;;;-84
2022/06/01 21:27:33;;;;;;;;;;;;;;;12.65;55.16016;101990.9;;;;-82
2022/06/01 21:29:21;;;;;;;3.8;2;;;;;;;;;;;;;-83
2022/06/01 21:32:33;;;;;;;;;;;;;;;12.53;55.0332;101993.7;;;;-83
2022/06/01 21:37:38;;;;;;;;;;;;;;;12.47;55.05957;101995.4;;;;-82
2022/06/01 21:42:32;;;;;;;;;;;;;;;12.38;55.23828;102004.3;;;;-82
2022/06/01 21:47:31;;;;;;;;;;;;;;;12.31;55.36426;102009.6;;;;-82
2022/06/01 21:52:31;;;;;;;;;;;;;;;12.26;55.66016;102013.1;;;;-81
2022/06/01 21:57:30;;;;;;;;;;;;;;;12.23;55.83496;102013.8;;;;-82
2022/06/01 21:59:22;;;;;;;3.8;2;;;;;;;;;;;;;-80
2022/06/01 22:02:34;;;;;;;;;;;;;;;12.18;55.80566;102019;;;;-81
2022/06/01 22:07:31;;;;;;;;;;;;;;;12.1;55.69531;102018.4;;;;-82
2022/06/01 22:12:32;;;;;;;;;;;;;;;12;55.87305;102019;;;;-82
2022/06/01 22:17:31;;;;;;;;;;;;;;;11.92;56.03125;102019.9;;;;-82
2022/06/01 22:22:36;;;;;;;;;;;;;;;11.82;56.13965;102021.8;;;;-82
2022/06/01 22:27:31;;;;;;;;;;;;;;;11.71;56.02539;102026.1;;;;-82
2022/06/01 22:29:23;;;;;;;3.5;1.7;;;;;;;;;;;;;-81
2022/06/01 22:32:31;;;;;;;;;;;;;;;11.61;55.86719;102033.2;;;;-82
2022/06/01 22:37:33;;;;;;;;;;;;;;;11.51;56.32324;102038;;;;-83
2022/06/01 22:42:32;;;;;;;;;;;;;;;11.41;56.20996;102044.3;;;;-83
2022/06/01 22:47:36;;;;;;;;;;;;;;;11.31;56.08594;102047.6;;;;-82
2022/06/01 22:52:34;;;;;;;;;;;;;;;11.2;56.35156;102054;;;;-82
2022/06/01 22:57:32;;;;;;;;;;;;;;;11.12;56.6416;102058.5;;;;-80
2022/06/01 22:59:23;;;;;;;3.7;2.2;;;;;;;;;;;;;-82
2022/06/01 23:02:31;;;;;;;;;;;;;;;11.03;56.63086;102057.6;;;;-81
2022/06/01 23:07:33;;;;;;;;;;;;;;;10.98;56.94727;102064.7;;;;-81
2022/06/01 23:12:31;;;;;;;;;;;;;;;10.89;56.67871;102062.5;;;;-81
2022/06/01 23:17:31;;;;;;;;;;;;;;;10.81;56.85742;102059.8;;;;-81
2022/06/01 23:22:38;;;;;;;;;;;;;;;10.73;56.9043;102060.2;;;;-82
2022/06/01 23:27:32;;;;;;;;;;;;;;;10.64;57.03711;102062.5;;;;-82
2022/06/01 23:29:31;;;;;;;4.3;2.4;;;;;;;;;;;;;-82
2022/06/01 23:32:50;;;;;;;;;;;;;;;10.56;57.15918;102063.9;;;;-84
2022/06/01 23:37:43;;;;;;;;;;;;;;;10.49;57.31738;102054;;;;-82
2022/06/01 23:42:45;;;;;;;;;;;;;;;10.44;57.37695;102056.5;;;;-82
2022/06/01 23:47:43;;;;;;;;;;;;;;;10.38;57.45898;102060.7;;;;-81
2022/06/01 23:52:45;;;;;;;;;;;;;;;10.35;57.39941;102065.5;;;;-80
2022/06/01 23:57:40;;;;;;;;;;;;;;;10.29;57.68164;102065.8;;;;-83
2022/06/01 23:59:48;;;;;;;4.4;2.5;;;;;;;;;;;;;-82
